Charif Al Idrissi — CNA2128 — position and weather

sailwx.info

Track history (hours):
 
Tides and Currents Weather Stations Pressure Air Temp Water Temp Dewpoint Dewpoint Depression Visibility Wind Speed Wind Dir Waves Ship Positions

Charif Al Idrissi

Last reported at 2017-Nov-13 01:07 UTC. Time now 2017-Nov-24 11:24 UTC.
Position N 24°45' W 016°06'.
Warning: this ship's position is 11 days out of date.

MMSI: 242907000.

Date/timePositionNaut miles runAvg speedWind from/ knotsBaromVisibWave heightAir tempDewpointWater temp
2017-Nov-13 01:07N 24°45' W 016°06'0 1.0
2017-Nov-13 00:59N 24°45' W 016°06'1 1.1
2017-Nov-13 00:28N 24°45' W 016°05'1 1.2
2017-Nov-12 23:45N 24°46' W 016°04'0 1.3
2017-Nov-12 23:26N 24°46' W 016°04'  
2017-Nov-10 17:31N 25°08' W 015°08'0 7.0
2017-Nov-10 17:30N 25°08' W 015°08'2 4.4
2017-Nov-10 17:00N 25°06' W 015°10'1 2.9
2017-Nov-10 16:30N 25°08' W 015°09'1 1.6
2017-Nov-10 16:00N 25°07' W 015°10'3 6.8
2017-Nov-10 15:30N 25°05' W 015°13'3 6.8
2017-Nov-10 15:00N 25°03' W 015°17'1 1.9
2017-Nov-10 14:30N 25°03' W 015°17'2 3.4
2017-Nov-10 13:59N 25°04' W 015°16'3 5.3
2017-Nov-10 13:30N 25°02' W 015°18'3 6.7
2017-Nov-10 13:01N 24°59' W 015°19'4 6.8
2017-Nov-10 12:28N 24°56' W 015°21'2 1.5
2017-Nov-10 10:57N 24°55' W 015°23'  
2017-Nov-07 11:18N 27°30' W 013°28'3 8.8
2017-Nov-07 11:00N 27°31' W 013°26'4 8.7
2017-Nov-07 10:30N 27°34' W 013°22'4 8.6
2017-Nov-07 10:00N 27°38' W 013°19'5 8.5
2017-Nov-07 09:27N 27°41' W 013°15'4 8.4
2017-Nov-07 09:00N 27°44' W 013°12'4 7.1
2017-Nov-07 08:30N 27°46' W 013°10'4 7.7
2017-Nov-07 08:00N 27°49' W 013°07'4 8.4
2017-Nov-07 07:30N 27°53' W 013°04'4 8.6
2017-Nov-07 07:00N 27°57' W 013°02'4 8.8
2017-Nov-07 06:30N 28°00' W 012°59'6 8.8
2017-Nov-07 05:53N 28°02' W 012°53'4 8.7
2017-Nov-07 05:22N 28°03' W 012°48'3 8.5
2017-Nov-07 05:00N 28°04' W 012°45'4 8.1
2017-Nov-07 04:29N 28°06' W 012°40'5 8.0
2017-Nov-07 03:51N 28°07' W 012°35'4 7.9
2017-Nov-07 03:24N 28°08' W 012°31'4 7.9
2017-Nov-07 02:55N 28°09' W 012°27'3 7.8
2017-Nov-07 02:30N 28°10' W 012°23'6 7.7
2017-Nov-07 01:44N 28°11' W 012°17'24 8.1
2017-Nov-06 22:44N 28°21' W 011°51'  
Track history (hours):
 
Tides and Currents Weather Stations Pressure Air Temp Water Temp Dewpoint Dewpoint Depression Visibility Wind Speed Wind Dir Waves Ship Positions

Charif Al Idrissi

Last reported at 2017-Nov-13 01:07 UTC. Time now 2017-Nov-24 11:24 UTC.
Position N 24°45' W 016°06'.
Warning: this ship's position is 11 days out of date.

MMSI: 242907000.

Date/timePositionNaut miles runAvg speedWind from/ knotsBaromVisibWave heightAir tempDewpointWater temp
2017-Nov-13 01:07N 24°45' W 016°06'0 1.0
2017-Nov-13 00:59N 24°45' W 016°06'1 1.1
2017-Nov-13 00:28N 24°45' W 016°05'1 1.2
2017-Nov-12 23:45N 24°46' W 016°04'0 1.3
2017-Nov-12 23:26N 24°46' W 016°04'  
2017-Nov-10 17:31N 25°08' W 015°08'0 7.0
2017-Nov-10 17:30N 25°08' W 015°08'2 4.4
2017-Nov-10 17:00N 25°06' W 015°10'1 2.9
2017-Nov-10 16:30N 25°08' W 015°09'1 1.6
2017-Nov-10 16:00N 25°07' W 015°10'3 6.8
2017-Nov-10 15:30N 25°05' W 015°13'3 6.8
2017-Nov-10 15:00N 25°03' W 015°17'1 1.9
2017-Nov-10 14:30N 25°03' W 015°17'2 3.4
2017-Nov-10 13:59N 25°04' W 015°16'3 5.3
2017-Nov-10 13:30N 25°02' W 015°18'3 6.7
2017-Nov-10 13:01N 24°59' W 015°19'4 6.8
2017-Nov-10 12:28N 24°56' W 015°21'2 1.5
2017-Nov-10 10:57N 24°55' W 015°23'  
2017-Nov-07 11:18N 27°30' W 013°28'3 8.8
2017-Nov-07 11:00N 27°31' W 013°26'4 8.7
2017-Nov-07 10:30N 27°34' W 013°22'4 8.6
2017-Nov-07 10:00N 27°38' W 013°19'5 8.5
2017-Nov-07 09:27N 27°41' W 013°15'4 8.4
2017-Nov-07 09:00N 27°44' W 013°12'4 7.1
2017-Nov-07 08:30N 27°46' W 013°10'4 7.7
2017-Nov-07 08:00N 27°49' W 013°07'4 8.4
2017-Nov-07 07:30N 27°53' W 013°04'4 8.6
2017-Nov-07 07:00N 27°57' W 013°02'4 8.8
2017-Nov-07 06:30N 28°00' W 012°59'6 8.8
2017-Nov-07 05:53N 28°02' W 012°53'4 8.7
2017-Nov-07 05:22N 28°03' W 012°48'3 8.5
2017-Nov-07 05:00N 28°04' W 012°45'4 8.1
2017-Nov-07 04:29N 28°06' W 012°40'5 8.0
2017-Nov-07 03:51N 28°07' W 012°35'4 7.9
2017-Nov-07 03:24N 28°08' W 012°31'4 7.9
2017-Nov-07 02:55N 28°09' W 012°27'3 7.8
2017-Nov-07 02:30N 28°10' W 012°23'6 7.7
2017-Nov-07 01:44N 28°11' W 012°17'24 8.1
2017-Nov-06 22:44N 28°21' W 011°51'  

Dump ship's entire track history